ADDS METAR Data INFO
IDs: Format: Raw Decoded Include TAF

Data at: 1530 UTC 18 Jun 2018

KLAL 181450Z 00000KT 10SM BKN025 29/22 A3015
KLAL 181352Z 09006KT 10SM BKN016 28/23 A3015
KLAL 181259Z 09005KT 10SM BKN010 28/24 A3015
KLAL 181155Z 00000KT 10SM FEW007 SCT250 26/25 A3013
KLAL 181050Z 00000KT 10SM SKC 24/24 A3011
KLAL 180950Z 05003KT 10SM SKC 24/24 A3010
KLAL 180935Z AUTO 00000KT 10SM CLR 24/23 A3010 RMK AO2
KLAL 180915Z AUTO 00000KT 10SM CLR 24/24 A3009 RMK AO2
KLAL 180855Z AUTO 00000KT 10SM CLR 24/23 A3009 RMK AO2
KLAL 180835Z AUTO 00000KT 10SM CLR 24/23 A3009 RMK AO2
KLAL 180815Z AUTO 00000KT 10SM CLR 25/23 A3009 RMK AO2
KLAL 180735Z AUTO 00000KT 10SM CLR 25/23 A3009 RMK AO2
KLAL 180715Z AUTO 00000KT 10SM CLR 25/23 A3010 RMK AO2
KLAL 180655Z AUTO 00000KT 10SM CLR 25/23 A3011 RMK AO2
KLAL 180635Z AUTO 05003KT 10SM CLR 25/23 A3011 RMK AO2
KLAL 180615Z AUTO 05003KT 10SM CLR 25/23 A3011 RMK AO2
KLAL 180535Z AUTO 00000KT 10SM CLR 25/23 A3012 RMK AO2
KLAL 180455Z AUTO 13003KT 10SM CLR 26/22 A3013 RMK AO2
KLAL 180435Z AUTO 13004KT 10SM CLR 26/22 A3013 RMK AO2 LTG DSNT S
KLAL 180415Z AUTO 16003KT 10SM CLR 26/22 A3013 RMK AO2 LTG DSNT S
KLAL 180355Z AUTO 13005KT 10SM CLR 26/22 A3012 RMK AO2
KLAL 180335Z AUTO 10004KT 10SM CLR 26/22 A3013 RMK AO2
KLAL 180315Z AUTO 09005KT 10SM CLR 26/22 A3013 RMK AO2
KLAL 180150Z 06003KT 10SM SCT070 27/23 A3012
KLAL 180050Z 07007KT 10SM BKN070 27/22 A3011
KLAL 172354Z 07008KT 10SM SCT070 BKN150 27/21 A3008
KLAL 172250Z 06016G28KT 10SM SCT055 30/21 A3009
KLAL 172150Z 04003KT 10SM SCT050 33/21 A3007
KLAL 172050Z 01004KT 10SM SCT045 33/21 A3008
KLAL 171950Z 36005KT 10SM SCT045 33/19 A3009
KLAL 171850Z 02007KT 10SM BKN045 32/22 A3011
KLAL 171750Z 03005KT 10SM BKN042 32/22 A3013
KLAL 171653Z 07003KT 10SM SCT040 31/22 A3014
KLAL 171550Z 04003KT 10SM SCT035 31/22 A3015
KLAL 171450Z 01004KT 10SM SKC 30/22 A3015
KLAL 171350Z 00000KT 10SM SKC 28/23 A3015
KLAL 171250Z 00000KT 10SM SKC 27/22 A3014
KLAL 171150Z 00000KT 10SM SKC 24/23 A3012
KLAL 171050Z 00000KT 10SM SKC 23/23 A3011
KLAL 170953Z 00000KT 10SM SKC 23/23 A3010
KLAL 170935Z AUTO 00000KT 10SM CLR 23/22 A3010 RMK AO2
KLAL 170915Z AUTO 00000KT 10SM CLR 23/22 A3009 RMK AO2
KLAL 170855Z AUTO 00000KT 10SM CLR 23/22 A3008 RMK AO2
KLAL 170835Z AUTO 00000KT 10SM CLR 23/22 A3009 RMK AO2
KLAL 170815Z AUTO 00000KT 10SM CLR 23/22 A3009 RMK AO2
KLAL 170755Z AUTO 00000KT 10SM CLR 23/22 A3009 RMK AO2
KLAL 170735Z AUTO 00000KT 10SM CLR 23/22 A3009 RMK AO2
KLAL 170715Z AUTO 00000KT 10SM CLR 23/22 A3009 RMK AO2
KLAL 170655Z AUTO 00000KT 10SM CLR 23/22 A3009 RMK AO2
KLAL 170635Z AUTO 00000KT 10SM CLR 23/22 A3009 RMK AO2
KLAL 170615Z AUTO 00000KT 10SM CLR 24/21 A3010 RMK AO2
KLAL 170555Z AUTO 08003KT 10SM CLR 23/21 A3010 RMK AO2
KLAL 170535Z AUTO 09004KT 10SM CLR 24/21 A3010 RMK AO2
KLAL 170515Z AUTO 00000KT 10SM CLR 24/21 A3010 RMK AO2